Golden City, Missouri
Current Conditions -  °F | °C
As of 6:53 PM on Sunday 21 Dec 2014 (Local Time) from KJLN Reporting Station
Overcast Overcast  
Wind Chill: 40°   Ceiling: 6000
Heat Index: 45°   Visibility: 10mi
Dew Point: 38°   Wind: 9mph
Humidity: 76%   Direction: 140°SE
Pressure: 29.84"   Gusts: NA
Location:  37.39°N, 94.09°W
Report Text: KJLN 220053Z 14008KT 10SM SCT035 OVC060 07/03 A2984 RMK AO2 SLP108 T00720033 $
Loading
Personal Weather Stations






























Interactive Weather Map New forecast layout! Learn more

10-Day Weather Forecast

Advertisements
Track Severe Weather on mobile